createdAt,value
2023-05-20T00:01:54.389Z,102382.25
2023-05-20T00:04:23.802Z,102386.69
2023-05-20T00:06:51.759Z,102386.06
2023-05-20T00:09:19.786Z,102379.91
2023-05-20T00:11:47.891Z,102385.31
2023-05-20T00:14:15.843Z,102389.09
2023-05-20T00:16:44.277Z,102386.22
2023-05-20T00:19:12.263Z,102376.34
2023-05-20T00:21:41.557Z,102383.03
2023-05-20T00:24:09.490Z,102380.69
2023-05-20T00:26:37.391Z,102383.59
2023-05-20T00:29:05.404Z,102377.97
2023-05-20T00:31:33.509Z,102375.06
2023-05-20T00:34:01.584Z,102382.91
2023-05-20T00:36:29.568Z,102383.72
2023-05-20T00:38:58.872Z,102379.34
2023-05-20T00:41:26.861Z,102374.06
2023-05-20T00:43:55.643Z,102382.81
2023-05-20T00:46:25.308Z,102385.31
2023-05-20T00:48:53.766Z,102391.16
2023-05-20T00:51:22.582Z,102387.25
2023-05-20T00:53:51.523Z,102384.66
2023-05-20T00:56:22.096Z,102394.28
2023-05-20T00:58:50.451Z,102391.75
2023-05-20T01:01:18.332Z,102385.25
2023-05-20T01:03:46.379Z,102378.75
2023-05-20T01:06:14.295Z,102381.22
2023-05-20T01:08:42.482Z,102380.84
2023-05-20T01:11:16.319Z,102373.19
2023-05-20T01:13:48.793Z,102370.50
2023-05-20T01:16:19.534Z,102375.06
2023-05-20T01:18:49.391Z,102366.06
2023-05-20T01:21:18.634Z,102374.00
2023-05-20T01:26:29.793Z,102371.03
2023-05-20T01:28:58.113Z,102363.13
2023-05-20T01:31:30.881Z,102369.78
2023-05-20T01:33:59.658Z,102367.38
2023-05-20T01:36:30.015Z,102371.03
2023-05-20T01:38:59.913Z,102362.00
2023-05-20T01:41:30.188Z,102359.16
2023-05-20T01:43:58.445Z,102363.25
2023-05-20T01:46:26.481Z,102356.84
2023-05-20T01:48:54.519Z,102357.06
2023-05-20T01:51:22.406Z,102355.22
2023-05-20T01:53:50.558Z,102354.56
2023-05-20T01:56:19.991Z,102348.50
2023-05-20T01:58:47.982Z,102354.59
2023-05-20T02:01:16.148Z,102350.66
2023-05-20T02:03:45.030Z,102340.56
2023-05-20T02:06:13.052Z,102346.81
2023-05-20T02:08:40.987Z,102341.88
2023-05-20T02:11:08.988Z,102341.78
2023-05-20T02:13:40.258Z,102347.91
2023-05-20T02:16:08.604Z,102341.00
2023-05-20T02:18:36.556Z,102350.03
2023-05-20T02:21:05.109Z,102339.09
2023-05-20T02:23:33.149Z,102340.94
2023-05-20T02:26:01.199Z,102343.44
2023-05-20T02:28:29.523Z,102344.47
2023-05-20T02:30:58.788Z,102342.78
2023-05-20T02:33:29.138Z,102344.28
2023-05-20T02:35:57.742Z,102344.06
2023-05-20T02:38:26.579Z,102343.59
2023-05-20T02:40:54.721Z,102348.91
2023-05-20T02:43:22.798Z,102344.31
2023-05-20T02:45:50.774Z,102352.00
2023-05-20T02:48:20.054Z,102347.19
2023-05-20T02:50:49.147Z,102351.13
2023-05-20T02:53:17.112Z,102352.38
2023-05-20T02:55:47.344Z,102347.78
2023-05-20T02:58:15.523Z,102344.66
2023-05-20T03:00:43.511Z,102350.56
2023-05-20T03:03:13.609Z,102353.31
2023-05-20T03:05:46.086Z,102352.88
2023-05-20T03:08:15.060Z,102343.44
2023-05-20T03:10:43.084Z,102356.56
2023-05-20T03:13:11.530Z,102362.81
2023-05-20T03:15:39.886Z,102356.56
2023-05-20T03:18:08.674Z,102363.63
2023-05-20T03:20:38.330Z,102365.63
2023-05-20T03:23:09.282Z,102366.13
2023-05-20T03:25:38.709Z,102365.59
2023-05-20T03:28:06.927Z,102358.97
2023-05-20T03:30:37.844Z,102366.97
2023-05-20T03:33:06.415Z,102369.56
2023-05-20T03:35:34.965Z,102364.66
2023-05-20T03:38:03.244Z,102370.47
2023-05-20T03:40:33.424Z,102363.81
2023-05-20T03:43:01.451Z,102376.69
2023-05-20T03:45:30.588Z,102371.94
2023-05-20T03:48:06.159Z,102366.78
2023-05-20T03:50:35.981Z,102365.47
2023-05-20T03:53:04.204Z,102380.44
2023-05-20T03:55:40.049Z,102379.13
2023-05-20T03:58:08.620Z,102378.00
2023-05-20T04:00:37.051Z,102379.59
2023-05-20T04:03:05.913Z,102380.59
2023-05-20T04:05:34.185Z,102378.63
2023-05-20T04:08:05.034Z,102374.00
2023-05-20T04:10:34.071Z,102373.38
2023-05-20T04:13:03.302Z,102369.34
2023-05-20T04:15:31.331Z,102366.59
2023-05-20T04:18:01.383Z,102367.75
2023-05-20T04:20:29.651Z,102365.84
2023-05-20T04:22:59.240Z,102360.34
2023-05-20T04:25:27.500Z,102363.09
2023-05-20T04:27:57.730Z,102369.06
2023-05-20T04:30:27.518Z,102363.00
2023-05-20T04:32:55.941Z,102364.06
2023-05-20T04:35:26.201Z,102366.47
2023-05-20T04:37:56.277Z,102368.09
2023-05-20T04:40:24.534Z,102363.69
2023-05-20T04:42:53.714Z,102361.72
2023-05-20T04:45:23.330Z,102371.84
2023-05-20T04:47:53.442Z,102374.81
2023-05-20T04:50:22.102Z,102382.31
2023-05-20T04:52:50.708Z,102376.59
2023-05-20T04:55:19.780Z,102371.31
2023-05-20T04:57:47.786Z,102367.97
2023-05-20T05:00:16.297Z,102370.97
2023-05-20T05:02:44.217Z,102370.59
2023-05-20T05:05:13.673Z,102365.03
2023-05-20T05:07:41.592Z,102376.34
2023-05-20T05:10:10.237Z,102366.78
2023-05-20T05:12:38.180Z,102366.06
2023-05-20T05:15:07.146Z,102362.81
2023-05-20T05:17:35.187Z,102356.09
2023-05-20T05:20:03.462Z,102361.66
2023-05-20T05:22:36.920Z,102363.53
2023-05-20T05:25:05.037Z,102362.25
2023-05-20T05:27:33.019Z,102361.25
2023-05-20T05:30:01.886Z,102366.06
2023-05-20T05:32:30.414Z,102362.25
2023-05-20T05:34:58.539Z,102364.16
2023-05-20T05:37:27.007Z,102358.97
2023-05-20T05:39:56.580Z,102360.50
2023-05-20T05:42:24.990Z,102360.97
2023-05-20T05:44:53.620Z,102355.44
2023-05-20T05:47:23.045Z,102360.16
2023-05-20T05:49:51.862Z,102361.44
2023-05-20T05:52:19.761Z,102351.91
2023-05-20T05:54:47.699Z,102352.25
2023-05-20T05:57:17.119Z,102344.72
2023-05-20T05:59:45.232Z,102350.19
2023-05-20T06:02:14.618Z,102348.19
2023-05-20T06:04:43.116Z,102342.47
2023-05-20T06:07:12.385Z,102345.78
2023-05-20T06:09:40.577Z,102350.19
2023-05-20T06:12:09.224Z,102344.75
2023-05-20T06:14:38.852Z,102338.19
2023-05-20T06:17:07.235Z,102333.00
2023-05-20T06:19:35.692Z,102338.38
2023-05-20T06:22:04.113Z,102339.44
2023-05-20T06:24:34.630Z,102339.22
2023-05-20T06:27:04.098Z,102335.75
2023-05-20T06:29:32.132Z,102340.78
2023-05-20T06:32:02.473Z,102330.94
2023-05-20T06:34:30.836Z,102334.53
2023-05-20T06:36:58.750Z,102342.75
2023-05-20T06:39:26.848Z,102338.09
2023-05-20T06:41:55.286Z,102344.44
2023-05-20T06:44:30.551Z,102346.06
2023-05-20T06:47:19.087Z,102353.28
2023-05-20T06:49:49.224Z,102344.03
2023-05-20T06:52:17.381Z,102347.03
2023-05-20T06:54:47.899Z,102342.00
2023-05-20T06:57:16.281Z,102342.41
2023-05-20T06:59:44.259Z,102343.16
2023-05-20T07:02:12.484Z,102336.69
2023-05-20T07:04:42.400Z,102340.97
2023-05-20T07:07:10.476Z,102347.03
2023-05-20T07:09:39.177Z,102341.63
2023-05-20T07:12:09.065Z,102340.47
2023-05-20T07:14:37.524Z,102333.22
2023-05-20T07:17:07.113Z,102332.41
2023-05-20T07:19:35.348Z,102334.31
2023-05-20T07:22:04.905Z,102331.84
2023-05-20T07:24:42.402Z,102337.72
2023-05-20T07:27:11.512Z,102337.56
2023-05-20T07:29:39.905Z,102331.50
2023-05-20T07:32:10.017Z,102323.25
2023-05-20T07:34:38.968Z,102317.03
2023-05-20T07:37:10.074Z,102317.25
2023-05-20T07:39:38.758Z,102308.63
2023-05-20T07:42:08.146Z,102309.75
2023-05-20T07:44:41.158Z,102318.00
2023-05-20T07:47:09.428Z,102307.75
2023-05-20T07:49:37.601Z,102314.59
2023-05-20T07:52:06.346Z,102313.13
2023-05-20T07:54:36.610Z,102301.13
2023-05-20T07:57:04.704Z,102300.53
2023-05-20T07:59:33.023Z,102299.00
2023-05-20T08:02:01.124Z,102290.06
2023-05-20T08:04:30.166Z,102291.13
2023-05-20T08:06:58.916Z,102286.34
2023-05-20T08:09:43.894Z,102300.50
2023-05-20T08:12:12.130Z,102286.50
2023-05-20T08:14:41.785Z,102296.44
2023-05-20T08:17:09.819Z,102292.44
2023-05-20T08:19:38.426Z,102295.06
2023-05-20T08:22:07.949Z,102279.19
2023-05-20T08:24:36.384Z,102290.81
2023-05-20T08:27:06.445Z,102287.03
2023-05-20T08:29:34.580Z,102281.16
2023-05-20T08:32:03.034Z,102273.16
2023-05-20T08:34:30.990Z,102266.25
2023-05-20T08:36:58.853Z,102272.59
2023-05-20T08:39:27.414Z,102275.44
2023-05-20T08:41:58.880Z,102258.28
2023-05-20T08:44:29.403Z,102252.88
2023-05-20T08:46:58.903Z,102255.25
2023-05-20T08:49:27.294Z,102260.41
2023-05-20T08:51:55.423Z,102258.09
2023-05-20T08:54:26.680Z,102261.94
2023-05-20T08:56:55.931Z,102264.91
2023-05-20T08:59:24.058Z,102259.50
2023-05-20T09:01:53.404Z,102261.44
2023-05-20T09:04:21.498Z,102265.16
2023-05-20T09:06:52.087Z,102263.31
2023-05-20T09:09:20.137Z,102261.34
2023-05-20T09:11:48.213Z,102265.38
2023-05-20T09:14:16.180Z,102272.03
2023-05-20T09:16:44.271Z,102273.78
2023-05-20T09:19:13.696Z,102271.31
2023-05-20T09:21:43.027Z,102268.25
2023-05-20T09:24:11.048Z,102261.72
2023-05-20T09:26:38.989Z,102254.13
2023-05-20T09:29:08.363Z,102249.69
2023-05-20T09:31:39.083Z,102246.22
2023-05-20T09:34:08.062Z,102266.63
2023-05-20T09:36:37.520Z,102256.69
2023-05-20T09:39:06.820Z,102249.16
2023-05-20T09:41:39.618Z,102244.03
2023-05-20T09:44:07.788Z,102248.19
2023-05-20T09:46:37.632Z,102256.97
2023-05-20T09:49:07.916Z,102256.72
2023-05-20T09:51:37.433Z,102251.66
2023-05-20T09:54:08.464Z,102261.22
2023-05-20T09:56:38.238Z,102258.41
2023-05-20T09:59:06.867Z,102239.09
2023-05-20T10:01:34.921Z,102240.16
2023-05-20T10:04:05.206Z,102251.97
2023-05-20T10:06:57.367Z,102250.97
2023-05-20T10:09:38.835Z,102242.78
2023-05-20T10:12:19.511Z,102248.13
2023-05-20T10:15:01.139Z,102248.97
2023-05-20T10:17:37.465Z,102244.63
2023-05-20T10:20:11.830Z,102242.91
2023-05-20T10:22:41.450Z,102238.81
2023-05-20T10:25:26.666Z,102238.44
2023-05-20T10:28:07.807Z,102235.22
2023-05-20T10:30:36.672Z,102233.78
2023-05-20T10:33:07.077Z,102233.16
2023-05-20T10:35:35.355Z,102233.06
2023-05-20T10:38:12.543Z,102228.72
2023-05-20T10:40:41.245Z,102224.63
2023-05-20T10:43:13.658Z,102219.06
2023-05-20T10:45:51.851Z,102216.31
2023-05-20T10:48:25.556Z,102199.94
2023-05-20T10:50:58.000Z,102193.69
2023-05-20T10:53:33.682Z,102193.91
2023-05-20T10:56:02.718Z,102192.16
2023-05-20T10:58:38.403Z,102194.31
2023-05-20T11:01:06.575Z,102201.69
2023-05-20T11:03:36.318Z,102197.59
2023-05-20T11:06:12.625Z,102190.53
2023-05-20T11:08:43.984Z,102194.97
2023-05-20T11:11:12.399Z,102180.06
2023-05-20T11:13:40.667Z,102179.97
2023-05-20T11:16:08.800Z,102174.00
2023-05-20T11:18:36.884Z,102187.94
2023-05-20T11:21:05.098Z,102176.97
2023-05-20T11:23:33.617Z,102180.66
2023-05-20T11:26:03.560Z,102168.81
2023-05-20T11:28:33.267Z,102150.03
2023-05-20T11:31:01.511Z,102155.25
2023-05-20T11:33:32.461Z,102158.38
2023-05-20T11:36:00.463Z,102151.16
2023-05-20T11:38:29.175Z,102159.63
2023-05-20T11:40:57.560Z,102167.72
2023-05-20T11:43:27.433Z,102165.63
2023-05-20T11:45:57.631Z,102148.91
2023-05-20T11:48:26.609Z,102147.72
2023-05-20T11:50:56.836Z,102155.91
2023-05-20T11:53:30.849Z,102149.38
2023-05-20T11:56:00.176Z,102130.69
2023-05-20T11:58:31.343Z,102157.25
2023-05-20T12:01:09.626Z,102156.25
2023-05-20T12:03:47.961Z,102156.81
2023-05-20T12:06:16.132Z,102144.47
2023-05-20T12:08:45.314Z,102133.06
2023-05-20T12:11:13.380Z,102131.56
2023-05-20T12:13:42.796Z,102121.09
2023-05-20T12:16:11.274Z,102119.03
2023-05-20T12:18:39.229Z,102130.78
2023-05-20T12:21:07.300Z,102126.47
2023-05-20T12:23:35.206Z,102110.94
2023-05-20T12:26:03.259Z,102112.81
2023-05-20T12:28:32.154Z,102113.69
2023-05-20T12:31:01.597Z,102103.81
2023-05-20T12:33:29.580Z,102099.78
2023-05-20T12:35:57.860Z,102112.22
2023-05-20T12:38:28.273Z,102094.41
2023-05-20T12:40:58.764Z,102090.66
2023-05-20T12:43:26.764Z,102096.91
2023-05-20T12:45:56.030Z,102090.31
2023-05-20T12:48:25.564Z,102088.84
2023-05-20T12:50:53.750Z,102089.25
2023-05-20T12:53:22.430Z,102078.47
2023-05-20T12:55:50.355Z,102082.38
2023-05-20T12:58:26.109Z,102076.44
2023-05-20T13:01:02.357Z,102064.16
2023-05-20T13:03:33.846Z,102075.34
2023-05-20T13:06:01.820Z,102076.41
2023-05-20T13:08:34.758Z,102076.53
2023-05-20T13:11:02.623Z,102075.09
2023-05-20T13:13:31.385Z,102060.19
2023-05-20T13:15:59.456Z,102053.06
2023-05-20T13:18:27.417Z,102040.97
2023-05-20T13:20:57.463Z,102035.84
2023-05-20T13:23:25.398Z,102041.38
2023-05-20T13:25:53.354Z,102040.31
2023-05-20T13:28:22.062Z,102043.69
2023-05-20T13:30:49.958Z,102041.41
2023-05-20T13:33:18.225Z,102029.09
2023-05-20T13:35:46.159Z,102028.22
2023-05-20T13:38:15.469Z,102026.97
2023-05-20T13:40:43.525Z,102023.34
2023-05-20T13:43:11.578Z,102014.69
2023-05-20T13:45:39.827Z,102010.22
2023-05-20T13:48:07.985Z,102005.50
2023-05-20T13:50:36.138Z,102007.72
2023-05-20T13:53:04.707Z,102012.56
2023-05-20T13:55:33.955Z,102006.78
2023-05-20T13:58:01.845Z,101994.03
2023-05-20T14:00:29.777Z,102003.19
2023-05-20T14:02:57.703Z,101996.75
2023-05-20T14:05:25.664Z,101994.91
2023-05-20T14:07:53.535Z,102000.91
2023-05-20T14:10:21.556Z,102008.34
2023-05-20T14:12:50.866Z,102006.06
2023-05-20T14:15:18.756Z,101996.28
2023-05-20T14:17:46.657Z,101985.91
2023-05-20T14:20:14.818Z,101992.41
2023-05-20T14:22:42.845Z,101985.78
2023-05-20T14:25:10.955Z,101983.31
2023-05-20T14:27:38.841Z,101991.31
2023-05-20T14:30:09.782Z,101988.00
2023-05-20T14:32:38.019Z,101985.03
2023-05-20T14:35:06.836Z,101978.22
2023-05-20T14:37:34.738Z,101969.00
2023-05-20T14:40:03.392Z,101960.94
2023-05-20T14:42:31.261Z,101963.78
2023-05-20T14:44:59.213Z,101957.38
2023-05-20T14:47:28.591Z,101949.69
2023-05-20T14:49:57.924Z,101961.66
2023-05-20T14:52:25.942Z,101964.09
2023-05-20T14:54:53.962Z,101956.78
2023-05-20T14:57:21.999Z,101956.94
2023-05-20T14:59:52.468Z,101969.50
2023-05-20T15:02:20.450Z,101958.09
2023-05-20T15:04:50.412Z,101956.50
2023-05-20T15:07:18.327Z,101951.50
2023-05-20T15:09:46.314Z,101953.22
2023-05-20T15:12:14.191Z,101941.63
2023-05-20T15:14:42.050Z,101935.38
2023-05-20T15:17:09.991Z,101945.00
2023-05-20T15:19:41.264Z,101938.59
2023-05-20T15:22:10.900Z,101930.44
2023-05-20T15:24:38.804Z,101926.41
2023-05-20T15:27:06.963Z,101924.53
2023-05-20T15:29:35.057Z,101931.22
2023-05-20T15:32:02.945Z,101934.94
2023-05-20T15:34:30.840Z,101926.44
2023-05-20T15:36:58.729Z,101927.13
2023-05-20T15:39:28.352Z,101917.75
2023-05-20T15:41:56.311Z,101913.28
2023-05-20T15:44:24.156Z,101918.38
2023-05-20T15:46:52.414Z,101923.19
2023-05-20T15:49:20.503Z,101914.19
2023-05-20T15:52:11.851Z,101907.00
2023-05-20T15:54:38.042Z,101907.00
2023-05-20T15:57:06.694Z,101911.00
2023-05-20T15:59:34.790Z,101900.41
2023-05-20T16:02:02.958Z,101904.38
2023-05-20T16:04:31.198Z,101899.69
2023-05-20T16:06:59.324Z,101904.59
2023-05-20T16:09:27.361Z,101896.00
2023-05-20T16:11:57.177Z,101892.59
2023-05-20T16:14:25.212Z,101893.13
2023-05-20T16:16:53.259Z,101878.56
2023-05-20T16:19:21.411Z,101884.97
2023-05-20T16:21:49.472Z,101871.69
2023-05-20T16:24:17.498Z,101864.38
2023-05-20T16:26:45.623Z,101859.84
2023-05-20T16:29:16.501Z,101867.50
2023-05-20T16:31:46.604Z,101859.41
2023-05-20T16:34:16.397Z,101864.91
2023-05-20T16:36:46.311Z,101859.22
2023-05-20T16:39:14.864Z,101861.34
2023-05-20T16:41:43.259Z,101857.75
2023-05-20T16:44:11.537Z,101856.78
2023-05-20T16:46:40.972Z,101865.78
2023-05-20T16:49:08.967Z,101863.47
2023-05-20T16:51:37.078Z,101864.88
2023-05-20T16:54:05.217Z,101863.97
2023-05-20T16:56:35.301Z,101846.47
2023-05-20T16:59:03.578Z,101851.63
2023-05-20T17:01:32.068Z,101853.34
2023-05-20T17:04:01.489Z,101854.75
2023-05-20T17:06:33.968Z,101851.41
2023-05-20T17:09:03.026Z,101855.56
2023-05-20T17:11:31.001Z,101854.88
2023-05-20T17:13:58.881Z,101850.66
2023-05-20T17:16:26.851Z,101850.59
2023-05-20T17:18:54.825Z,101849.84
2023-05-20T17:21:24.180Z,101854.44
2023-05-20T17:23:52.137Z,101856.94
2023-05-20T17:26:22.236Z,101846.88
2023-05-20T17:28:50.107Z,101850.88
2023-05-20T17:31:18.013Z,101840.63
2023-05-20T17:33:46.279Z,101849.41
2023-05-20T17:36:16.161Z,101841.88
2023-05-20T17:38:45.501Z,101848.22
2023-05-20T17:41:13.423Z,101843.72
2023-05-20T17:43:41.318Z,101839.44
2023-05-20T17:46:09.195Z,101848.31
2023-05-20T17:48:37.099Z,101846.06
2023-05-20T17:51:05.658Z,101850.75
2023-05-20T17:53:33.552Z,101856.06
2023-05-20T17:56:02.802Z,101849.72
2023-05-20T17:58:31.494Z,101855.31
2023-05-20T18:00:59.401Z,101849.19
2023-05-20T18:03:27.805Z,101849.38
2023-05-20T18:05:56.282Z,101845.75
2023-05-20T18:08:25.319Z,101846.06
2023-05-20T18:10:53.567Z,101851.00
2023-05-20T18:13:22.829Z,101846.28
2023-05-20T18:15:51.082Z,101848.53
2023-05-20T18:18:19.113Z,101847.16
2023-05-20T18:20:47.189Z,101849.75
2023-05-20T18:23:15.357Z,101850.53
2023-05-20T18:25:43.644Z,101847.13
2023-05-20T18:28:13.169Z,101846.31
2023-05-20T18:30:42.491Z,101842.06
2023-05-20T18:33:10.845Z,101842.00
2023-05-20T18:35:39.312Z,101837.13
2023-05-20T18:38:07.266Z,101837.63
2023-05-20T18:40:35.354Z,101839.00
2023-05-20T18:43:03.306Z,101839.97
2023-05-20T18:45:31.371Z,101841.28
2023-05-20T18:48:00.764Z,101842.13
2023-05-20T18:50:28.825Z,101855.66
2023-05-20T18:52:56.689Z,101852.19
2023-05-20T18:55:24.932Z,101850.13
2023-05-20T18:57:52.998Z,101856.50
2023-05-20T19:00:21.317Z,101857.56
2023-05-20T19:02:49.244Z,101859.66
2023-05-20T19:05:19.691Z,101853.41
2023-05-20T19:07:47.673Z,101855.00
2023-05-20T19:10:16.195Z,101859.13
2023-05-20T19:12:44.675Z,101863.13
2023-05-20T19:15:12.847Z,101866.44
2023-05-20T19:17:40.812Z,101873.16
2023-05-20T19:20:10.490Z,101871.63
2023-05-20T19:22:39.785Z,101870.16
2023-05-20T19:25:08.678Z,101872.69
2023-05-20T19:27:36.709Z,101871.94
2023-05-20T19:30:05.431Z,101867.91
2023-05-20T19:32:33.367Z,101872.09
2023-05-20T19:35:01.261Z,101861.81
2023-05-20T19:37:29.109Z,101870.28
2023-05-20T19:39:58.425Z,101869.16
2023-05-20T19:42:26.364Z,101866.75
2023-05-20T19:44:55.009Z,101878.75
2023-05-20T19:47:23.038Z,101880.84
2023-05-20T19:49:51.041Z,101883.66
2023-05-20T19:52:19.949Z,101887.06
2023-05-20T19:54:48.564Z,101884.72
2023-05-20T19:57:17.857Z,101882.56
2023-05-20T19:59:45.794Z,101883.72
2023-05-20T20:02:14.832Z,101890.44
2023-05-20T20:04:43.087Z,101886.50
2023-05-20T20:07:11.045Z,101883.34
2023-05-20T20:09:38.953Z,101883.09
2023-05-20T20:12:07.923Z,101879.97
2023-05-20T20:14:38.026Z,101881.50
2023-05-20T20:17:06.226Z,101889.84
2023-05-20T20:19:34.205Z,101882.03
2023-05-20T20:22:02.149Z,101877.22
2023-05-20T20:24:30.053Z,101872.78
2023-05-20T20:26:58.364Z,101884.94
2023-05-20T20:29:26.743Z,101875.44
2023-05-20T20:31:56.582Z,101889.44
2023-05-20T20:34:24.482Z,101878.56
2023-05-20T20:36:53.156Z,101883.72
2023-05-20T20:39:22.567Z,101881.31
2023-05-20T20:41:51.431Z,101874.16
2023-05-20T20:44:22.414Z,101873.28
2023-05-20T20:46:51.506Z,101878.09
2023-05-20T20:49:21.992Z,101866.75
2023-05-20T20:51:51.362Z,101868.44
2023-05-20T20:54:19.384Z,101872.91
2023-05-20T20:56:47.345Z,101874.72
2023-05-20T20:59:15.990Z,101870.72
2023-05-20T21:01:45.132Z,101859.59
2023-05-20T21:04:14.001Z,101866.28
2023-05-20T21:06:45.970Z,101868.09
2023-05-20T21:09:14.094Z,101866.03
2023-05-20T21:11:42.966Z,101859.78
2023-05-20T21:14:11.164Z,101856.09
2023-05-20T21:16:39.233Z,101842.81
2023-05-20T21:19:07.222Z,101847.38
2023-05-20T21:21:35.218Z,101844.84
2023-05-20T21:24:04.656Z,101832.78
2023-05-20T21:26:32.536Z,101832.81
2023-05-20T21:29:00.507Z,101834.34
2023-05-20T21:31:28.580Z,101830.44
2023-05-20T21:33:56.547Z,101824.53
2023-05-20T21:36:24.438Z,101824.88
2023-05-20T21:38:52.415Z,101821.09
2023-05-20T21:41:23.576Z,101832.53
2023-05-20T21:43:51.662Z,101826.97
2023-05-20T21:46:19.607Z,101821.78
2023-05-20T21:48:47.560Z,101820.94
2023-05-20T21:51:15.590Z,101814.53
2023-05-20T21:53:43.634Z,101826.44
2023-05-20T21:56:11.533Z,101816.78
2023-05-20T21:58:41.898Z,101817.25
2023-05-20T22:01:10.550Z,101809.03
2023-05-20T22:03:39.950Z,101814.00
2023-05-20T22:06:08.301Z,101818.09
2023-05-20T22:08:36.305Z,101823.16
2023-05-20T22:11:07.398Z,101822.16
2023-05-20T22:13:41.244Z,101824.44
2023-05-20T22:16:11.279Z,101819.63
2023-05-20T22:18:39.675Z,101814.66
2023-05-20T22:21:07.656Z,101822.44
2023-05-20T22:23:35.599Z,101818.81
2023-05-20T22:26:04.921Z,101826.44
2023-05-20T22:28:32.972Z,101814.88
2023-05-20T22:31:01.399Z,101815.53
2023-05-20T22:33:30.792Z,101810.50
2023-05-20T22:35:59.522Z,101811.84
2023-05-20T22:38:29.288Z,101809.66
2023-05-20T22:40:57.301Z,101810.50
2023-05-20T22:43:26.335Z,101805.97
2023-05-20T22:45:54.296Z,101807.09
2023-05-20T22:48:23.045Z,101809.97
2023-05-20T22:50:54.026Z,101801.38
2023-05-20T22:53:21.887Z,101801.66
2023-05-20T22:55:49.937Z,101815.22
2023-05-20T22:58:17.792Z,101808.41
2023-05-20T23:00:46.011Z,101802.66
2023-05-20T23:03:14.100Z,101799.81
2023-05-20T23:05:42.002Z,101803.63
2023-05-20T23:08:11.280Z,101798.41
2023-05-20T23:10:39.465Z,101802.31
2023-05-20T23:13:07.346Z,101801.78
2023-05-20T23:15:35.361Z,101792.06
2023-05-20T23:18:03.631Z,101785.38
2023-05-20T23:20:31.524Z,101781.56
2023-05-20T23:23:05.569Z,101789.13
2023-05-20T23:25:40.149Z,101781.41
2023-05-20T23:28:08.139Z,101772.56
2023-05-20T23:30:36.622Z,101772.06
2023-05-20T23:33:04.728Z,101768.97
2023-05-20T23:35:32.771Z,101775.25
2023-05-20T23:38:00.764Z,101770.00
2023-05-20T23:40:28.696Z,101764.16
2023-05-20T23:42:57.910Z,101768.16
2023-05-20T23:45:25.978Z,101767.00
2023-05-20T23:47:55.515Z,101757.56
2023-05-20T23:50:23.717Z,101761.44
2023-05-20T23:52:52.215Z,101758.13
2023-05-20T23:55:20.159Z,101761.41
2023-05-20T23:57:48.083Z,101762.16
